createdAt,value
2023-05-19T00:01:32.111Z,4.90
2023-05-19T00:04:02.837Z,5.53
2023-05-19T00:06:32.592Z,5.17
2023-05-19T00:09:03.069Z,6.13
2023-05-19T00:11:32.507Z,5.77
2023-05-19T00:14:01.378Z,5.40
2023-05-19T00:16:30.477Z,5.90
2023-05-19T00:19:00.173Z,5.93
2023-05-19T00:21:28.500Z,6.33
2023-05-19T00:23:56.548Z,7.13
2023-05-19T00:26:25.035Z,7.20
2023-05-19T00:28:54.362Z,6.37
2023-05-19T00:31:22.140Z,6.00
2023-05-19T00:33:49.928Z,6.87
2023-05-19T00:36:17.780Z,7.73
2023-05-19T00:38:45.498Z,6.93
2023-05-19T00:41:13.279Z,7.20
2023-05-19T00:43:41.084Z,7.83
2023-05-19T00:46:10.984Z,7.03
2023-05-19T00:48:38.789Z,7.50
2023-05-19T00:51:06.800Z,7.07
2023-05-19T00:53:35.688Z,8.67
2023-05-19T00:56:04.397Z,6.43
2023-05-19T00:58:32.821Z,8.93
2023-05-19T01:01:03.689Z,8.80
2023-05-19T01:03:35.220Z,7.57
2023-05-19T01:06:04.940Z,8.07
2023-05-19T01:08:33.325Z,8.53
2023-05-19T01:11:01.206Z,8.40
2023-05-19T01:13:29.274Z,7.80
2023-05-19T01:16:03.493Z,9.90
2023-05-19T01:18:40.605Z,7.63
2023-05-19T01:21:27.157Z,10.03
2023-05-19T01:24:02.785Z,8.33
2023-05-19T01:26:54.005Z,9.33
2023-05-19T01:29:32.326Z,8.53
2023-05-19T01:32:01.537Z,8.87
2023-05-19T01:34:29.265Z,9.37
2023-05-19T01:36:57.195Z,8.93
2023-05-19T01:39:25.434Z,8.50
2023-05-19T01:41:53.600Z,7.90
2023-05-19T01:44:22.188Z,8.93
2023-05-19T01:46:50.140Z,9.87
2023-05-19T01:49:19.287Z,9.70
2023-05-19T01:51:47.016Z,10.30
2023-05-19T01:54:14.753Z,10.77
2023-05-19T01:56:47.271Z,10.50
2023-05-19T01:59:29.941Z,11.77
2023-05-19T02:01:59.674Z,10.17
2023-05-19T02:04:39.975Z,10.23
2023-05-19T02:07:13.417Z,11.87
2023-05-19T02:09:46.120Z,10.43
2023-05-19T02:12:20.815Z,10.70
2023-05-19T02:14:51.753Z,11.20
2023-05-19T02:17:19.735Z,11.97
2023-05-19T02:19:48.950Z,11.00
2023-05-19T02:22:16.690Z,11.53
2023-05-19T02:24:46.500Z,10.57
2023-05-19T02:27:14.412Z,11.67
2023-05-19T02:29:42.195Z,10.20
2023-05-19T02:32:10.330Z,11.73
2023-05-19T02:34:38.269Z,11.50
2023-05-19T02:37:07.825Z,12.37
2023-05-19T02:39:35.897Z,12.63
2023-05-19T02:42:04.049Z,12.50
2023-05-19T02:44:31.772Z,12.40
2023-05-19T02:46:59.548Z,12.60
2023-05-19T02:49:27.386Z,13.23
2023-05-19T02:51:55.128Z,12.53
2023-05-19T02:54:24.217Z,12.97
2023-05-19T02:56:51.922Z,12.03
2023-05-19T02:59:19.931Z,11.80
2023-05-19T03:01:47.778Z,13.00
2023-05-19T03:04:15.519Z,11.90
2023-05-19T03:06:45.544Z,12.50
2023-05-19T03:09:13.711Z,12.53
2023-05-19T03:11:43.026Z,12.43
2023-05-19T03:14:10.770Z,13.60
2023-05-19T03:16:41.221Z,13.83
2023-05-19T03:19:09.651Z,13.93
2023-05-19T03:21:37.556Z,13.80
2023-05-19T03:24:05.665Z,13.83
2023-05-19T03:26:33.606Z,13.87
2023-05-19T03:29:02.659Z,13.10
2023-05-19T03:31:30.567Z,13.70
2023-05-19T03:33:58.387Z,13.10
2023-05-19T03:36:26.247Z,13.93
2023-05-19T03:38:53.983Z,12.37
2023-05-19T03:41:21.683Z,14.37
2023-05-19T03:43:49.420Z,13.73
2023-05-19T03:46:18.551Z,14.27
2023-05-19T03:48:46.406Z,14.13
2023-05-19T03:51:14.121Z,13.07
2023-05-19T03:53:42.477Z,14.07
2023-05-19T03:56:11.711Z,15.27
2023-05-19T03:59:35.418Z,14.90
2023-05-19T04:02:03.108Z,15.73
2023-05-19T04:04:31.490Z,13.43
2023-05-19T04:06:59.226Z,14.90
2023-05-19T04:09:26.993Z,15.17
2023-05-19T04:11:54.737Z,13.37
2023-05-19T04:14:22.436Z,14.30
2023-05-19T04:16:51.534Z,13.63
2023-05-19T04:19:19.515Z,12.43
2023-05-19T04:21:47.331Z,14.00
2023-05-19T04:24:15.026Z,14.13
2023-05-19T04:26:46.057Z,14.57
2023-05-19T04:29:13.881Z,13.03
2023-05-19T04:31:42.144Z,13.17
2023-05-19T04:34:11.467Z,13.40
2023-05-19T04:36:39.223Z,12.67
2023-05-19T04:39:09.384Z,12.00
2023-05-19T04:41:40.392Z,13.77
2023-05-19T04:44:09.122Z,13.43
2023-05-19T04:46:36.922Z,12.57
2023-05-19T04:49:04.761Z,12.97
2023-05-19T04:51:33.947Z,12.93
2023-05-19T04:54:01.732Z,12.90
2023-05-19T04:56:30.166Z,12.60
2023-05-19T04:58:58.011Z,12.10
2023-05-19T05:01:26.161Z,11.63
2023-05-19T05:03:55.242Z,11.87
2023-05-19T05:06:23.073Z,10.73
2023-05-19T05:08:52.707Z,9.70
2023-05-19T05:11:20.932Z,10.07
2023-05-19T05:13:49.396Z,8.23
2023-05-19T05:16:17.834Z,7.47
2023-05-19T05:18:46.872Z,7.80
2023-05-19T05:21:15.122Z,9.27
2023-05-19T05:23:43.363Z,7.17
2023-05-19T05:26:18.696Z,7.13
2023-05-19T05:28:46.445Z,6.63
2023-05-19T05:31:14.204Z,7.63
2023-05-19T05:33:42.373Z,7.00
2023-05-19T05:36:10.373Z,8.77
2023-05-19T05:38:38.050Z,7.63
2023-05-19T05:41:05.914Z,7.93
2023-05-19T05:43:34.971Z,6.70
2023-05-19T05:46:02.737Z,6.83
2023-05-19T05:48:31.022Z,6.53
2023-05-19T05:50:59.071Z,7.17
2023-05-19T05:53:27.850Z,7.00
2023-05-19T05:55:56.199Z,6.40
2023-05-19T05:58:24.348Z,7.57
2023-05-19T06:00:57.130Z,5.97
2023-05-19T06:03:25.245Z,6.27
2023-05-19T06:05:53.106Z,6.17
2023-05-19T06:08:20.899Z,5.80
2023-05-19T06:10:48.616Z,6.37
2023-05-19T06:13:22.207Z,6.10
2023-05-19T06:15:50.022Z,6.43
2023-05-19T06:18:19.138Z,6.23
2023-05-19T06:20:46.880Z,5.87
2023-05-19T06:23:14.589Z,7.07
2023-05-19T06:25:42.327Z,5.93
2023-05-19T06:28:10.172Z,6.00
2023-05-19T06:30:37.833Z,5.30
2023-05-19T06:33:05.715Z,6.13
2023-05-19T06:35:34.924Z,6.30
2023-05-19T06:38:02.696Z,5.57
2023-05-19T06:40:30.652Z,6.10
2023-05-19T06:42:58.569Z,5.57
2023-05-19T06:45:26.503Z,6.37
2023-05-19T06:47:54.770Z,5.20
2023-05-19T06:50:22.572Z,5.70
2023-05-19T06:52:51.686Z,5.80
2023-05-19T06:55:19.426Z,6.27
2023-05-19T06:57:47.147Z,6.50
2023-05-19T07:00:18.715Z,5.60
2023-05-19T07:02:47.714Z,6.03
2023-05-19T07:05:15.774Z,5.90
2023-05-19T07:07:44.047Z,6.33
2023-05-19T07:10:13.303Z,5.40
2023-05-19T07:12:41.073Z,6.10
2023-05-19T07:15:09.263Z,6.30
2023-05-19T07:17:37.028Z,7.43
2023-05-19T07:20:06.744Z,6.17
2023-05-19T07:22:35.103Z,6.43
2023-05-19T07:25:02.854Z,5.40
2023-05-19T07:27:31.996Z,5.67
2023-05-19T07:29:59.954Z,5.53
2023-05-19T07:32:27.696Z,5.83
2023-05-19T07:34:55.813Z,6.73
2023-05-19T07:37:23.587Z,5.63
2023-05-19T07:39:51.277Z,5.27
2023-05-19T07:42:19.036Z,4.43
2023-05-19T07:44:48.113Z,4.30
2023-05-19T07:47:15.856Z,5.13
2023-05-19T07:49:43.599Z,4.50
2023-05-19T07:52:11.287Z,5.17
2023-05-19T07:54:39.006Z,4.77
2023-05-19T07:57:07.306Z,4.63
2023-05-19T07:59:35.053Z,3.57
2023-05-19T08:02:04.242Z,4.67
2023-05-19T08:04:32.114Z,5.00
2023-05-19T08:06:59.889Z,4.73
2023-05-19T08:09:27.606Z,4.47
2023-05-19T08:11:55.931Z,4.13
2023-05-19T08:14:23.671Z,4.40
2023-05-19T08:16:51.755Z,3.67
2023-05-19T08:19:21.084Z,3.90
2023-05-19T08:21:49.701Z,3.63
2023-05-19T08:24:17.432Z,3.07
2023-05-19T08:26:45.540Z,3.83
2023-05-19T08:29:13.263Z,4.27
2023-05-19T08:31:41.124Z,3.47
2023-05-19T08:34:09.363Z,3.83
2023-05-19T08:36:39.025Z,3.10
2023-05-19T08:39:06.938Z,3.13
2023-05-19T08:41:34.696Z,3.03
2023-05-19T08:44:02.415Z,2.43
2023-05-19T08:46:30.797Z,2.83
2023-05-19T08:49:00.835Z,3.07
2023-05-19T08:51:33.707Z,2.70
2023-05-19T08:54:09.128Z,2.70
2023-05-19T08:56:37.220Z,3.03
2023-05-19T08:59:05.263Z,2.87
2023-05-19T09:01:33.394Z,2.60
2023-05-19T09:04:01.271Z,2.07
2023-05-19T09:06:32.362Z,2.57
2023-05-19T09:09:00.123Z,2.00
2023-05-19T09:11:29.348Z,2.53
2023-05-19T09:13:57.038Z,2.10
2023-05-19T09:16:25.961Z,2.63
2023-05-19T09:18:57.005Z,2.23
2023-05-19T09:21:33.978Z,1.97
2023-05-19T09:24:06.057Z,2.90
2023-05-19T09:26:39.954Z,2.23
2023-05-19T09:29:18.208Z,2.20
2023-05-19T09:31:50.615Z,3.00
2023-05-19T09:34:18.554Z,2.40
2023-05-19T09:36:49.386Z,3.07
2023-05-19T09:39:17.863Z,2.10
2023-05-19T09:41:47.553Z,1.90
2023-05-19T09:44:15.596Z,2.33
2023-05-19T09:46:50.415Z,2.67
2023-05-19T09:49:22.709Z,2.90
2023-05-19T09:51:52.129Z,1.80
2023-05-19T09:54:21.480Z,2.70
2023-05-19T09:56:58.602Z,1.70
2023-05-19T09:59:29.769Z,2.47
2023-05-19T10:01:59.981Z,2.43
2023-05-19T10:04:29.464Z,2.43
2023-05-19T10:06:59.438Z,2.53
2023-05-19T10:09:28.224Z,1.63
2023-05-19T10:11:58.488Z,1.73
2023-05-19T10:14:27.674Z,2.57
2023-05-19T10:16:56.633Z,2.20
2023-05-19T10:19:26.171Z,2.03
2023-05-19T10:21:54.403Z,2.50
2023-05-19T10:24:22.358Z,2.20
2023-05-19T10:26:53.018Z,1.97
2023-05-19T10:29:24.303Z,2.33
2023-05-19T10:31:53.334Z,2.20
2023-05-19T10:34:51.411Z,1.80
2023-05-19T10:37:28.877Z,1.93
2023-05-19T10:39:56.707Z,2.57
2023-05-19T10:42:32.649Z,2.00
2023-05-19T10:45:06.889Z,2.00
2023-05-19T10:47:35.075Z,2.90
2023-05-19T10:50:02.825Z,1.80
2023-05-19T10:52:32.864Z,2.67
2023-05-19T10:55:02.201Z,2.00
2023-05-19T10:57:32.058Z,2.43
2023-05-19T11:00:00.754Z,2.20
2023-05-19T11:02:41.144Z,3.03
2023-05-19T11:05:10.698Z,25.70
2023-05-19T11:07:38.664Z,3.53
2023-05-19T11:10:10.057Z,4.20
2023-05-19T11:12:43.409Z,3.03
2023-05-19T11:15:15.562Z,2.57
2023-05-19T11:17:49.672Z,2.93
2023-05-19T11:20:24.601Z,2.30
2023-05-19T11:23:08.515Z,2.97
2023-05-19T11:25:43.914Z,2.20
2023-05-19T11:28:13.142Z,2.13
2023-05-19T11:30:43.359Z,2.43
2023-05-19T11:33:13.415Z,2.70
2023-05-19T11:35:41.333Z,2.90
2023-05-19T11:38:09.095Z,2.30
2023-05-19T11:40:37.681Z,2.10
2023-05-19T11:43:05.399Z,1.90
2023-05-19T11:45:34.230Z,2.20
2023-05-19T11:48:03.569Z,2.77
2023-05-19T11:50:33.618Z,2.60
2023-05-19T11:53:02.113Z,2.10
2023-05-19T11:55:30.980Z,2.40
2023-05-19T12:00:31.141Z,3.07
2023-05-19T12:02:59.234Z,2.57
2023-05-19T12:05:28.226Z,2.60
2023-05-19T12:07:57.400Z,2.67
2023-05-19T12:10:25.625Z,2.20
2023-05-19T12:12:54.226Z,2.57
2023-05-19T12:15:22.735Z,2.67
2023-05-19T12:17:51.287Z,1.90
2023-05-19T12:20:19.422Z,2.20
2023-05-19T12:22:47.475Z,2.60
2023-05-19T12:25:17.020Z,2.13
2023-05-19T12:27:45.503Z,2.27
2023-05-19T12:30:13.829Z,2.70
2023-05-19T12:32:41.641Z,2.70
2023-05-19T12:35:10.535Z,2.07
2023-05-19T12:37:41.728Z,2.47
2023-05-19T12:40:10.934Z,2.43
2023-05-19T12:42:45.939Z,2.77
2023-05-19T12:45:13.969Z,2.17
2023-05-19T12:47:41.716Z,2.40
2023-05-19T12:50:10.885Z,2.50
2023-05-19T12:52:43.175Z,3.10
2023-05-19T12:55:12.204Z,2.20
2023-05-19T12:57:43.023Z,2.37
2023-05-19T13:00:17.526Z,2.50
2023-05-19T13:02:59.332Z,1.93
2023-05-19T13:05:28.244Z,2.13
2023-05-19T13:07:59.976Z,2.20
2023-05-19T13:10:29.580Z,2.07
2023-05-19T13:13:00.195Z,1.87
2023-05-19T13:15:29.556Z,2.93
2023-05-19T13:17:57.262Z,2.20
2023-05-19T13:20:27.617Z,2.47
2023-05-19T13:22:56.961Z,2.67
2023-05-19T13:25:24.680Z,1.93
2023-05-19T13:27:52.395Z,2.43
2023-05-19T13:30:22.734Z,1.90
2023-05-19T13:32:52.471Z,2.43
2023-05-19T13:35:20.943Z,2.13
2023-05-19T13:37:48.959Z,1.70
2023-05-19T13:40:17.576Z,2.20
2023-05-19T13:42:45.349Z,1.83
2023-05-19T13:45:13.229Z,2.20
2023-05-19T13:47:42.379Z,2.27
2023-05-19T13:50:10.571Z,2.10
2023-05-19T13:52:38.319Z,2.43
2023-05-19T13:55:08.113Z,2.07
2023-05-19T13:57:36.952Z,2.80
2023-05-19T14:00:05.944Z,2.37
2023-05-19T14:02:34.409Z,1.83
2023-05-19T14:05:03.580Z,1.73
2023-05-19T14:07:31.732Z,1.57
2023-05-19T14:09:59.463Z,1.90
2023-05-19T14:12:36.386Z,2.40
2023-05-19T14:15:11.921Z,1.83
2023-05-19T14:17:39.661Z,2.40
2023-05-19T14:20:09.975Z,1.93
2023-05-19T14:22:37.669Z,2.50
2023-05-19T14:25:05.874Z,1.90
2023-05-19T14:27:33.679Z,2.17
2023-05-19T14:30:01.455Z,2.30
2023-05-19T14:32:30.401Z,2.37
2023-05-19T14:34:58.465Z,2.27
2023-05-19T14:37:28.968Z,2.03
2023-05-19T14:39:57.972Z,2.40
2023-05-19T14:42:25.913Z,1.93
2023-05-19T14:44:53.700Z,2.07
2023-05-19T14:47:21.475Z,2.20
2023-05-19T14:49:49.475Z,1.77
2023-05-19T14:52:17.889Z,1.80
2023-05-19T14:54:46.994Z,2.10
2023-05-19T14:57:14.754Z,2.17
2023-05-19T14:59:42.553Z,2.60
2023-05-19T15:02:11.901Z,1.87
2023-05-19T15:04:39.628Z,2.00
2023-05-19T15:07:10.106Z,2.43
2023-05-19T15:09:38.293Z,2.10
2023-05-19T15:12:07.491Z,2.03
2023-05-19T15:14:35.256Z,1.90
2023-05-19T15:17:03.036Z,1.60
2023-05-19T15:19:30.870Z,2.27
2023-05-19T15:21:58.605Z,2.33
2023-05-19T15:24:26.574Z,2.10
2023-05-19T15:26:55.415Z,1.93
2023-05-19T15:29:24.637Z,2.03
2023-05-19T15:31:52.599Z,1.60
2023-05-19T15:34:20.545Z,2.70
2023-05-19T15:36:48.612Z,1.90
2023-05-19T15:39:16.410Z,3.60
2023-05-19T15:41:44.108Z,2.07
2023-05-19T15:44:11.868Z,1.90
2023-05-19T15:46:41.143Z,1.97
2023-05-19T15:49:09.150Z,2.47
2023-05-19T15:51:40.887Z,2.13
2023-05-19T15:54:08.597Z,2.17
2023-05-19T15:56:36.384Z,1.80
2023-05-19T15:59:04.169Z,1.90
2023-05-19T16:01:31.899Z,2.00
2023-05-19T16:04:03.653Z,1.87
2023-05-19T16:06:31.697Z,1.60
2023-05-19T16:08:59.440Z,2.13
2023-05-19T16:11:27.312Z,1.80
2023-05-19T16:13:55.049Z,1.90
2023-05-19T16:16:22.806Z,1.47
2023-05-19T16:18:50.603Z,1.50
2023-05-19T16:21:19.771Z,1.60
2023-05-19T16:23:47.616Z,1.70
2023-05-19T16:26:15.371Z,1.90
2023-05-19T16:28:43.058Z,1.50
2023-05-19T16:31:10.858Z,1.53
2023-05-19T16:33:38.628Z,2.00
2023-05-19T16:36:06.810Z,1.60
2023-05-19T16:38:35.972Z,2.07
2023-05-19T16:41:05.267Z,1.53
2023-05-19T16:43:34.350Z,2.03
2023-05-19T16:46:03.528Z,2.17
2023-05-19T16:48:31.422Z,1.40
2023-05-19T16:50:59.494Z,1.63
2023-05-19T16:53:27.308Z,1.60
2023-05-19T16:55:56.498Z,2.00
2023-05-19T16:58:24.283Z,1.37
2023-05-19T17:00:52.764Z,1.57
2023-05-19T17:03:21.057Z,1.30
2023-05-19T17:05:49.410Z,1.80
2023-05-19T17:08:17.178Z,2.00
2023-05-19T17:10:45.377Z,1.90
2023-05-19T17:13:14.510Z,1.80
2023-05-19T17:15:43.483Z,1.73
2023-05-19T17:18:12.607Z,1.60
2023-05-19T17:20:41.595Z,1.80
2023-05-19T17:23:09.358Z,2.00
2023-05-19T17:25:37.240Z,1.93
2023-05-19T17:28:05.187Z,2.03
2023-05-19T17:30:34.637Z,1.50
2023-05-19T17:33:02.632Z,2.23
2023-05-19T17:35:30.348Z,1.53
2023-05-19T17:37:58.572Z,1.30
2023-05-19T17:40:26.808Z,2.50
2023-05-19T17:42:54.958Z,2.10
2023-05-19T17:45:22.724Z,2.10
2023-05-19T17:47:51.830Z,1.73
2023-05-19T17:50:19.581Z,1.80
2023-05-19T17:52:47.861Z,1.37
2023-05-19T17:55:16.155Z,1.70
2023-05-19T17:57:44.956Z,1.50
2023-05-19T18:00:13.750Z,1.67
2023-05-19T18:02:42.006Z,1.70
2023-05-19T18:05:12.968Z,1.60
2023-05-19T18:07:41.232Z,1.60
2023-05-19T18:10:11.065Z,1.57
2023-05-19T18:12:38.826Z,1.80
2023-05-19T18:15:07.564Z,1.67
2023-05-19T18:17:35.517Z,1.73
2023-05-19T18:20:03.449Z,1.53
2023-05-19T18:22:32.625Z,1.93
2023-05-19T18:25:00.301Z,1.40
2023-05-19T18:27:28.517Z,1.60
2023-05-19T18:29:56.210Z,1.40
2023-05-19T18:32:23.951Z,1.40
2023-05-19T18:34:52.062Z,1.73
2023-05-19T18:37:19.808Z,1.30
2023-05-19T18:39:49.004Z,2.13
2023-05-19T18:42:16.741Z,1.67
2023-05-19T18:44:46.751Z,1.50
2023-05-19T18:47:14.906Z,1.47
2023-05-19T18:49:43.151Z,2.00
2023-05-19T18:52:11.093Z,1.57
2023-05-19T18:54:40.557Z,1.63
2023-05-19T18:57:09.883Z,1.93
2023-05-19T18:59:37.661Z,1.47
2023-05-19T19:02:05.736Z,2.10
2023-05-19T19:04:34.463Z,1.97
2023-05-19T19:07:02.273Z,1.60
2023-05-19T19:09:30.027Z,2.20
2023-05-19T19:11:57.739Z,2.03
2023-05-19T19:14:26.914Z,2.17
2023-05-19T19:16:54.713Z,1.63
2023-05-19T19:19:23.724Z,1.60
2023-05-19T19:21:51.646Z,1.57
2023-05-19T19:24:19.402Z,1.80
2023-05-19T19:26:47.063Z,1.83
2023-05-19T19:29:16.695Z,2.80
2023-05-19T19:31:45.961Z,2.30
2023-05-19T19:34:13.768Z,2.20
2023-05-19T19:36:41.447Z,2.30
2023-05-19T19:39:09.473Z,2.77
2023-05-19T19:41:37.580Z,2.77
2023-05-19T19:44:05.770Z,3.07
2023-05-19T19:46:33.538Z,2.57
2023-05-19T19:49:02.621Z,2.60
2023-05-19T19:51:31.442Z,2.50
2023-05-19T19:53:59.471Z,3.13
2023-05-19T19:56:27.658Z,2.40
2023-05-19T19:58:56.822Z,3.20
2023-05-19T20:01:27.595Z,2.90
2023-05-19T20:03:55.890Z,2.60
2023-05-19T20:06:25.176Z,3.10
2023-05-19T20:08:52.928Z,3.40
2023-05-19T20:11:22.803Z,2.87
2023-05-19T20:13:50.577Z,3.20
2023-05-19T20:16:18.325Z,2.80
2023-05-19T20:18:46.223Z,2.87
2023-05-19T20:21:14.015Z,3.03
2023-05-19T20:23:43.102Z,3.17
2023-05-19T20:26:13.068Z,2.67
2023-05-19T20:28:41.545Z,2.20
2023-05-19T20:31:09.554Z,3.27
2023-05-19T20:33:37.290Z,2.87
2023-05-19T20:36:06.352Z,3.03
2023-05-19T20:38:34.063Z,2.57
2023-05-19T20:41:03.917Z,2.60
2023-05-19T20:43:32.997Z,2.90
2023-05-19T20:46:01.383Z,3.00
2023-05-19T20:48:29.262Z,2.90
2023-05-19T20:50:57.096Z,2.70
2023-05-19T20:53:24.925Z,2.80
2023-05-19T20:55:53.401Z,2.40
2023-05-19T20:58:22.492Z,2.20
2023-05-19T21:00:57.588Z,3.03
2023-05-19T21:03:26.756Z,2.77
2023-05-19T21:05:54.716Z,2.50
2023-05-19T21:08:22.416Z,3.53
2023-05-19T21:10:50.127Z,2.57
2023-05-19T21:13:18.659Z,3.57
2023-05-19T21:15:47.770Z,2.97
2023-05-19T21:18:15.592Z,3.10
2023-05-19T21:20:43.371Z,2.90
2023-05-19T21:23:11.159Z,2.07
2023-05-19T21:25:40.892Z,2.80
2023-05-19T21:28:08.605Z,2.47
2023-05-19T21:30:36.446Z,3.00
2023-05-19T21:33:05.691Z,3.07
2023-05-19T21:35:33.432Z,3.10
2023-05-19T21:38:12.007Z,2.83
2023-05-19T21:40:43.629Z,2.97
2023-05-19T21:43:12.641Z,3.27
2023-05-19T21:45:40.792Z,3.07
2023-05-19T21:48:09.909Z,3.23
2023-05-19T21:50:38.297Z,2.77
2023-05-19T21:53:06.215Z,2.87
2023-05-19T21:55:34.034Z,3.37
2023-05-19T21:58:02.758Z,4.70
2023-05-19T22:00:30.663Z,2.80
2023-05-19T22:02:58.934Z,3.73
2023-05-19T22:05:30.186Z,3.70
2023-05-19T22:07:58.063Z,3.10
2023-05-19T22:10:25.829Z,3.37
2023-05-19T22:12:53.571Z,3.20
2023-05-19T22:15:21.520Z,3.27
2023-05-19T22:17:49.210Z,3.50
2023-05-19T22:20:17.309Z,3.57
2023-05-19T22:22:46.384Z,3.53
2023-05-19T22:25:14.075Z,2.80
2023-05-19T22:27:41.776Z,3.20
2023-05-19T22:30:09.853Z,3.13
2023-05-19T22:32:37.629Z,3.57
2023-05-19T22:35:06.560Z,4.17
2023-05-19T22:37:34.480Z,4.23
2023-05-19T22:40:03.584Z,4.33
2023-05-19T22:42:31.434Z,3.87
2023-05-19T22:44:59.164Z,3.57
2023-05-19T22:47:26.985Z,3.37
2023-05-19T22:49:55.657Z,3.43
2023-05-19T22:52:24.863Z,4.20
2023-05-19T22:54:52.557Z,3.70
2023-05-19T22:57:21.700Z,3.67
2023-05-19T22:59:49.482Z,3.53
2023-05-19T23:02:17.168Z,3.47
2023-05-19T23:04:44.940Z,3.70
2023-05-19T23:07:12.655Z,4.03
2023-05-19T23:09:40.372Z,3.60
2023-05-19T23:12:08.090Z,3.47
2023-05-19T23:14:37.180Z,3.93
2023-05-19T23:17:05.181Z,3.57
2023-05-19T23:19:34.806Z,3.30
2023-05-19T23:22:02.526Z,4.03
2023-05-19T23:24:30.225Z,4.03
2023-05-19T23:26:57.989Z,3.60
2023-05-19T23:29:25.698Z,4.37
2023-05-19T23:31:54.860Z,3.50
2023-05-19T23:34:22.641Z,3.93
2023-05-19T23:36:50.371Z,3.83
2023-05-19T23:39:18.106Z,3.47
2023-05-19T23:41:46.109Z,4.00
2023-05-19T23:44:13.789Z,3.73
2023-05-19T23:46:41.955Z,3.43
2023-05-19T23:49:11.093Z,3.87
2023-05-19T23:51:38.830Z,4.03
2023-05-19T23:54:06.590Z,3.40
2023-05-19T23:56:34.338Z,3.13
2023-05-19T23:59:02.024Z,3.80
